Share

Port Lions, AK (99550)

3:41 AM AKDT on April 24, 2014 (GMT -0800)
Port Lions (KAKKODIA9) Elev 13 ft | 57.87 °N, 152.88 °W | Change Station

Current weather conditions updated 7 seconds ago

Overcast
Overcast
40.2 °F
Feels Like 32 °F
N
13.9
Wind Variable Wind from ENE
Sunrise 6:37 AM
Sunset 9:44 PM
Moon Waning Crescent

Today is forecast to be nearly the same temperature as yesterday. Chance of showers.

Pressure 29.62 in
Visibility 9.0 miles
Clouds Few 900 ft
Scattered Clouds 1600 ft
Overcast 2300 ft
Windchill 32 °F
Dew Point 39 °F
Humidity 95%
Rainfall -999.00 in
Snow Depth Not available.
UV 0 out of 16
Pollen Not available.
Air Quality Not available.
Flu Activity Sporadic
METAR PADQ 241053Z 09007KT 9SM FEW009 SCT016 OVC023 04/03 A2961 RMK AO2 SLP028 T00440033

More Conditions Fewer Conditions

Pressure 29.62 in
Visibility 9.0 miles
Clouds Few 900 ft
Scattered Clouds 1600 ft
Overcast 2300 ft
Windchill 32 °F
Dew Point 39 °F
Humidity 95%
Rainfall -999.00 in
Snow Depth Not available.
UV 0 out of 16
Pollen Not available.
Air Quality Not available.
Flu Activity Sporadic
METAR PADQ 241053Z 09007KT 9SM FEW009 SCT016 OVC023 04/03 A2961 RMK AO2 SLP028 T00440033

More Conditions Fewer Conditions

10-Day Weather Forecast

Almanac

Astronomy

Apr. 24, 2014 Rise Set
Actual Time 6:37 AM AKDT 9:44 PM AKDT
Civil Twilight 5:52 AM AKDT 10:30 PM AKDT
Nautical Twilight 4:50 AM AKDT 11:33 PM AKDT
Astronomical Twilight 3:15 AM AKDT 1:13 AM AKDT
Moon 4:58 AM AKDT 4:14 PM AKDT
Length of Visible Light 16h 38m
Length of Day
15h 07m
Tomorrow will be 4m 47s longer.
Waning Crescent, 26% of the Moon is Illuminated
Today
Waning Crescent
Apr 29
New
May 6
First Quarter
May 14
Full
May 21
Last Quarter

Today's Extremes

State Highs State Lows

Community

  • Stacked
    Stacked
  • clouds approaching Red Sox Nation
    clouds approaching Red Sox Nation
  • Balance
    Balance
  • Nestled In
    Nestled In
  • Stunning Sunrise
    Stunning Sunrise

WunderPhotos

Upload Photos

1,704,585 photos uploaded!

WunderBlogs® & News

Nearby

Snow Depth

Station Depth Elevation
Port Graham 2 in 300 ft
Nuka Glacier 26 in 1250 ft
Mcneil Canyon 3 in 1320 ft
MF Bradley River 17 in 2300 ft
Cooper Lake 18 in 1200 ft

Coastal Water Temperatures

Place Temperature
No Stations Reporting

Earthquake Activity

City Distance Mag. Time & Date
No recent earthquake activity has been reported nearby.
Minimum magnitude displayed is 2.5.

Nearby Weather Stations

Station Location Temp. Windchill Dew Point Humidity Wind Precip. Elev Updated Type
Port Lions, Kodiak, AK 40.2 °F 32 °F 39 °F 95% ENE  at  13.9 mph 0.00 in / hr 13 ft 3:41 AM AKDT Normal
HADS TERROR R AT MOUTH NR KODIAK AK , Port Lions, AK 36 °F 36 °F - - North  at  - 0.00 in / hr 215 ft 2:00 AM AKDT MADIS

Show More Stations Show Fewer Stations

What do you think?

We're not finished. Please let us know what you like, what you don't like, and what you are still missing.